createdAt,value
2022-12-01T00:01:38.954Z,34.90
2022-12-01T00:04:07.704Z,34.58
2022-12-01T00:06:37.922Z,29.80
2022-12-01T00:09:24.516Z,27.38
2022-12-01T00:11:52.951Z,30.85
2022-12-01T00:14:23.800Z,29.88
2022-12-01T00:16:51.906Z,30.77
2022-12-01T00:19:19.911Z,32.33
2022-12-01T00:21:48.015Z,32.25
2022-12-01T00:24:17.792Z,32.95
2022-12-01T00:26:46.001Z,33.58
2022-12-01T00:29:13.958Z,32.38
2022-12-01T00:31:43.297Z,39.20
2022-12-01T00:34:23.327Z,30.52
2022-12-01T00:36:52.023Z,30.08
2022-12-01T00:39:24.105Z,33.58
2022-12-01T00:41:52.198Z,38.35
2022-12-01T00:44:20.199Z,34.88
2022-12-01T00:46:48.827Z,41.83
2022-12-01T00:49:17.423Z,40.25
2022-12-01T00:51:45.727Z,31.42
2022-12-01T00:54:13.773Z,39.63
2022-12-01T00:56:43.135Z,34.83
2022-12-01T00:59:11.582Z,33.38
2022-12-01T01:01:39.957Z,36.10
2022-12-01T01:04:10.647Z,34.10
2022-12-01T01:06:38.743Z,33.78
2022-12-01T01:09:27.684Z,40.30
2022-12-01T01:11:57.412Z,36.33
2022-12-01T01:14:25.599Z,35.83
2022-12-01T01:16:54.227Z,31.92
2022-12-01T01:19:22.711Z,36.28
2022-12-01T01:21:50.858Z,29.52
2022-12-01T01:24:19.313Z,31.98
2022-12-01T01:26:47.512Z,28.77
2022-12-01T01:29:16.861Z,31.95
2022-12-01T01:31:45.004Z,31.13
2022-12-01T01:34:13.231Z,30.65
2022-12-01T01:36:44.565Z,29.98
2022-12-01T01:39:12.937Z,32.78
2022-12-01T01:41:41.048Z,28.90
2022-12-01T01:44:42.460Z,33.28
2022-12-01T01:47:12.893Z,29.52
2022-12-01T01:49:43.233Z,34.13
2022-12-01T01:52:12.773Z,39.00
2022-12-01T01:54:45.339Z,33.60
2022-12-01T01:57:17.502Z,36.72
2022-12-01T01:59:50.839Z,34.75
2022-12-01T02:02:20.595Z,37.45
2022-12-01T02:04:52.408Z,39.38
2022-12-01T02:07:21.575Z,25.08
2022-12-01T02:09:50.082Z,33.38
2022-12-01T02:12:46.067Z,26.90
2022-12-01T02:15:25.114Z,30.10
2022-12-01T02:18:05.253Z,31.42
2022-12-01T02:20:51.727Z,31.77
2022-12-01T02:23:43.367Z,29.38
2022-12-01T02:26:31.542Z,33.65
2022-12-01T02:29:19.487Z,33.92
2022-12-01T02:31:56.399Z,34.38
2022-12-01T02:34:29.639Z,30.65
2022-12-01T02:37:01.537Z,32.70
2022-12-01T02:39:35.452Z,32.22
2022-12-01T02:42:10.178Z,30.00
2022-12-01T02:44:43.332Z,32.08
2022-12-01T02:47:15.624Z,30.27
2022-12-01T02:49:48.939Z,32.30
2022-12-01T02:52:18.492Z,33.15
2022-12-01T02:54:48.657Z,28.48
2022-12-01T02:57:17.503Z,28.25
2022-12-01T02:59:50.996Z,28.73
2022-12-01T03:02:32.716Z,29.25
2022-12-01T03:05:05.120Z,31.98
2022-12-01T03:07:46.383Z,37.08
2022-12-01T03:10:24.054Z,28.77
2022-12-01T03:13:06.851Z,25.52
2022-12-01T03:15:39.116Z,31.35
2022-12-01T03:18:20.121Z,34.78
2022-12-01T03:20:55.272Z,34.92
2022-12-01T03:23:27.014Z,24.27
2022-12-01T03:25:57.517Z,30.75
2022-12-01T03:28:30.583Z,30.88
2022-12-01T03:31:04.321Z,32.95
2022-12-01T03:33:37.751Z,31.35
2022-12-01T03:36:11.808Z,33.13
2022-12-01T03:38:42.087Z,28.60
2022-12-01T03:41:16.935Z,29.48
2022-12-01T03:43:52.654Z,29.45
2022-12-01T03:46:26.446Z,29.50
2022-12-01T03:48:56.061Z,31.60
2022-12-01T03:51:31.508Z,28.50
2022-12-01T03:54:04.209Z,33.63
2022-12-01T03:56:39.028Z,34.20
2022-12-01T03:59:09.869Z,31.35
2022-12-01T04:01:38.747Z,30.30
2022-12-01T04:04:11.524Z,38.30
2022-12-01T04:06:41.401Z,34.88
2022-12-01T04:09:09.412Z,33.75
2022-12-01T04:11:55.356Z,36.40
2022-12-01T04:14:23.660Z,37.45
2022-12-01T04:16:51.629Z,32.75
2022-12-01T04:19:21.066Z,36.05
2022-12-01T04:21:49.076Z,35.65
2022-12-01T04:24:17.284Z,38.85
2022-12-01T04:26:46.180Z,38.53
2022-12-01T04:29:14.990Z,37.42
2022-12-01T04:31:43.065Z,38.92
2022-12-01T04:34:11.914Z,39.63
2022-12-01T04:36:41.339Z,37.20
2022-12-01T04:39:09.465Z,35.08
2022-12-01T04:41:37.400Z,38.58
2022-12-01T04:44:05.839Z,39.40
2022-12-01T04:46:33.826Z,42.13
2022-12-01T04:49:01.909Z,36.95
2022-12-01T04:51:30.317Z,39.13
2022-12-01T04:53:59.720Z,42.60
2022-12-01T04:56:27.690Z,36.97
2022-12-01T04:58:59.002Z,34.97
2022-12-01T05:01:27.232Z,37.90
2022-12-01T05:03:55.512Z,40.95
2022-12-01T05:06:25.336Z,46.38
2022-12-01T05:08:57.098Z,37.80
2022-12-01T05:11:28.368Z,38.63
2022-12-01T05:13:56.559Z,41.08
2022-12-01T05:16:26.946Z,39.83
2022-12-01T05:19:13.369Z,37.25
2022-12-01T05:21:42.240Z,42.13
2022-12-01T05:24:11.851Z,41.42
2022-12-01T05:26:42.302Z,37.58
2022-12-01T05:29:10.652Z,39.40
2022-12-01T05:31:39.790Z,36.55
2022-12-01T05:34:08.208Z,41.50
2022-12-01T05:36:36.515Z,39.30
2022-12-01T05:39:05.381Z,35.03
2022-12-01T05:41:33.505Z,38.33
2022-12-01T05:44:02.904Z,39.00
2022-12-01T05:46:31.066Z,40.22
2022-12-01T05:48:59.204Z,45.63
2022-12-01T05:51:27.340Z,37.72
2022-12-01T05:53:55.376Z,43.10
2022-12-01T05:56:23.713Z,39.67
2022-12-01T05:58:51.680Z,39.70
2022-12-01T06:01:21.085Z,43.38
2022-12-01T06:03:49.244Z,42.92
2022-12-01T06:06:17.569Z,39.78
2022-12-01T06:08:45.661Z,40.80
2022-12-01T06:11:13.776Z,37.53
2022-12-01T06:13:41.970Z,39.80
2022-12-01T06:16:10.406Z,41.70
2022-12-01T06:18:40.611Z,41.22
2022-12-01T06:21:08.725Z,39.70
2022-12-01T06:23:36.672Z,48.50
2022-12-01T06:26:05.661Z,45.30
2022-12-01T06:28:33.669Z,43.13
2022-12-01T06:31:03.676Z,43.90
2022-12-01T06:33:32.515Z,48.72
2022-12-01T06:36:03.124Z,46.17
2022-12-01T06:38:32.463Z,44.72
2022-12-01T06:41:00.908Z,45.47
2022-12-01T06:43:29.781Z,38.33
2022-12-01T06:46:02.131Z,45.20
2022-12-01T06:48:30.694Z,44.00
2022-12-01T06:50:58.812Z,43.70
2022-12-01T06:53:28.658Z,40.20
2022-12-01T06:56:00.908Z,43.28
2022-12-01T06:58:29.509Z,44.47
2022-12-01T07:00:58.938Z,44.65
2022-12-01T07:03:27.412Z,47.63
2022-12-01T07:05:59.859Z,40.78
2022-12-01T07:08:31.050Z,43.65
2022-12-01T07:11:00.220Z,45.83
2022-12-01T07:13:33.358Z,43.08
2022-12-01T07:16:03.175Z,41.47
2022-12-01T07:18:31.782Z,54.97
2022-12-01T07:21:01.719Z,47.22
2022-12-01T07:23:31.752Z,43.88
2022-12-01T07:26:01.094Z,41.10
2022-12-01T07:28:29.541Z,40.97
2022-12-01T07:31:03.395Z,43.05
2022-12-01T07:33:31.965Z,43.25
2022-12-01T07:36:00.245Z,41.17
2022-12-01T07:38:29.420Z,41.65
2022-12-01T07:41:02.885Z,45.53
2022-12-01T07:43:31.889Z,39.97
2022-12-01T07:46:06.436Z,39.13
2022-12-01T07:48:35.299Z,40.05
2022-12-01T07:51:04.523Z,38.47
2022-12-01T07:53:33.150Z,39.00
2022-12-01T07:56:07.084Z,37.75
2022-12-01T07:58:37.769Z,40.20
2022-12-01T08:01:10.310Z,41.75
2022-12-01T08:03:39.567Z,35.83
2022-12-01T08:06:09.338Z,39.58
2022-12-01T08:08:39.248Z,43.97
2022-12-01T08:11:11.677Z,39.90
2022-12-01T08:13:40.180Z,33.92
2022-12-01T08:16:09.917Z,38.00
2022-12-01T08:18:39.305Z,39.08
2022-12-01T08:21:09.612Z,36.90
2022-12-01T08:23:37.894Z,40.25
2022-12-01T08:26:09.991Z,45.63
2022-12-01T08:28:40.563Z,38.95
2022-12-01T08:31:10.869Z,37.67
2022-12-01T08:33:39.490Z,38.45
2022-12-01T08:36:08.248Z,38.80
2022-12-01T08:38:36.785Z,44.78
2022-12-01T08:41:06.783Z,40.65
2022-12-01T08:46:29.720Z,43.20
2022-12-01T08:48:58.202Z,42.47
2022-12-01T08:51:27.192Z,39.08
2022-12-01T08:53:57.065Z,38.88
2022-12-01T08:56:27.853Z,38.20
2022-12-01T08:58:58.066Z,39.10
2022-12-01T09:01:26.812Z,35.90
2022-12-01T09:04:06.688Z,38.80
2022-12-01T09:06:38.866Z,37.85
2022-12-01T09:09:07.652Z,40.50
2022-12-01T09:11:35.753Z,39.40
2022-12-01T09:14:05.458Z,34.88
2022-12-01T09:16:33.936Z,33.10
2022-12-01T09:19:02.396Z,36.67
2022-12-01T09:21:32.550Z,39.65
2022-12-01T09:24:01.544Z,34.97
2022-12-01T09:26:29.930Z,33.75
2022-12-01T09:29:00.553Z,37.55
2022-12-01T09:31:31.114Z,34.40
2022-12-01T09:34:01.931Z,34.33
2022-12-01T09:36:30.346Z,32.10
2022-12-01T09:38:58.876Z,35.17
2022-12-01T09:41:31.165Z,39.47
2022-12-01T09:44:05.834Z,36.15
2022-12-01T09:46:41.985Z,31.88
2022-12-01T09:49:17.081Z,31.63
2022-12-01T09:51:45.677Z,33.50
2022-12-01T09:54:15.368Z,33.45
2022-12-01T09:56:46.830Z,35.78
2022-12-01T09:59:20.581Z,34.00
2022-12-01T10:01:54.646Z,31.42
2022-12-01T10:04:30.594Z,30.98
2022-12-01T10:07:01.984Z,35.35
2022-12-01T10:09:37.035Z,32.33
2022-12-01T10:12:13.515Z,31.67
2022-12-01T10:14:42.614Z,34.28
2022-12-01T10:17:22.861Z,32.78
2022-12-01T10:19:58.353Z,32.33
2022-12-01T10:23:00.752Z,32.97
2022-12-01T10:25:32.165Z,32.15
2022-12-01T10:28:25.433Z,29.10
2022-12-01T10:31:00.377Z,33.15
2022-12-01T10:33:37.033Z,29.70
2022-12-01T10:36:05.715Z,29.17
2022-12-01T10:38:37.549Z,29.70
2022-12-01T10:41:12.095Z,30.75
2022-12-01T10:43:43.992Z,32.67
2022-12-01T10:46:25.004Z,32.05
2022-12-01T10:48:57.486Z,30.38
2022-12-01T10:51:27.080Z,35.05
2022-12-01T10:54:00.299Z,33.40
2022-12-01T10:56:29.359Z,30.90
2022-12-01T10:58:59.985Z,36.83
2022-12-01T11:01:35.549Z,32.45
2022-12-01T11:04:08.439Z,32.45
2022-12-01T11:06:39.018Z,31.98
2022-12-01T11:09:21.514Z,28.02
2022-12-01T11:11:57.858Z,33.58
2022-12-01T11:14:35.230Z,37.80
2022-12-01T11:17:16.884Z,35.20
2022-12-01T11:19:46.702Z,32.13
2022-12-01T11:22:22.744Z,31.10
2022-12-01T11:25:02.836Z,33.78
2022-12-01T11:27:34.899Z,32.35
2022-12-01T11:30:06.609Z,33.28
2022-12-01T11:32:38.430Z,30.73
2022-12-01T11:35:18.130Z,34.47
2022-12-01T11:38:21.089Z,33.10
2022-12-01T11:40:48.796Z,34.63
2022-12-01T11:43:26.599Z,34.42
2022-12-01T11:45:57.265Z,32.75
2022-12-01T11:48:27.248Z,33.40
2022-12-01T11:51:06.264Z,30.42
2022-12-01T11:53:37.073Z,30.85
2022-12-01T11:56:17.200Z,34.10
2022-12-01T11:58:48.246Z,31.88
2022-12-01T12:01:25.581Z,32.25
2022-12-01T12:04:04.081Z,32.03
2022-12-01T12:06:42.021Z,31.60
2022-12-01T12:09:30.711Z,34.45
2022-12-01T12:12:09.058Z,31.13
2022-12-01T12:14:50.810Z,34.85
2022-12-01T12:17:27.911Z,32.55
2022-12-01T12:20:34.880Z,31.80
2022-12-01T12:23:24.774Z,39.67
2022-12-01T12:26:04.081Z,29.95
2022-12-01T12:28:53.072Z,31.50
2022-12-01T12:31:30.772Z,34.08
2022-12-01T12:34:23.595Z,33.03
2022-12-01T12:37:03.264Z,28.98
2022-12-01T12:39:46.021Z,27.83
2022-12-01T12:42:24.712Z,27.95
2022-12-01T12:44:58.363Z,32.88
2022-12-01T12:47:43.386Z,33.78
2022-12-01T12:50:24.708Z,35.95
2022-12-01T12:52:58.179Z,33.38
2022-12-01T12:55:33.942Z,35.97
2022-12-01T12:58:11.340Z,30.83
2022-12-01T13:00:47.739Z,30.85
2022-12-01T13:03:21.331Z,34.50
2022-12-01T13:05:55.158Z,34.33
2022-12-01T13:08:26.830Z,30.85
2022-12-01T13:11:02.063Z,40.58
2022-12-01T13:13:37.618Z,30.65
2022-12-01T13:16:11.688Z,31.45
2022-12-01T13:18:44.054Z,28.55
2022-12-01T13:21:18.634Z,31.02
2022-12-01T13:23:49.034Z,34.22
2022-12-01T13:26:21.221Z,31.95
2022-12-01T13:28:53.943Z,29.60
2022-12-01T13:31:23.007Z,28.63
2022-12-01T13:33:59.270Z,33.28
2022-12-01T13:39:21.245Z,28.33
2022-12-01T13:42:00.825Z,29.25
2022-12-01T13:44:33.024Z,30.00
2022-12-01T13:47:05.395Z,30.10
2022-12-01T13:49:39.884Z,25.02
2022-12-01T13:52:28.593Z,25.65
2022-12-01T13:55:28.725Z,26.33
2022-12-01T13:58:25.228Z,27.77
2022-12-01T14:00:53.795Z,26.67
2022-12-01T14:03:38.430Z,27.23
2022-12-01T14:06:22.892Z,26.08
2022-12-01T14:08:53.980Z,27.83
2022-12-01T14:11:25.531Z,26.15
2022-12-01T14:13:58.876Z,28.42
2022-12-01T14:16:46.072Z,29.08
2022-12-01T14:19:29.398Z,28.88
2022-12-01T14:21:58.643Z,28.27
2022-12-01T14:24:33.260Z,27.05
2022-12-01T14:27:01.879Z,28.75
2022-12-01T14:29:34.322Z,30.65
2022-12-01T14:32:26.771Z,29.17
2022-12-01T14:35:09.537Z,31.38
2022-12-01T14:37:44.599Z,28.55
2022-12-01T14:40:32.609Z,30.27
2022-12-01T14:43:19.841Z,30.98
2022-12-01T14:45:58.398Z,30.30
2022-12-01T14:48:34.656Z,27.00
2022-12-01T14:51:14.872Z,28.65
2022-12-01T14:53:46.034Z,30.33
2022-12-01T14:56:17.909Z,27.75
2022-12-01T14:58:54.406Z,27.25
2022-12-01T15:01:25.233Z,28.30
2022-12-01T15:03:59.570Z,29.20
2022-12-01T15:06:31.080Z,28.23
2022-12-01T15:09:32.752Z,30.40
2022-12-01T15:11:58.763Z,32.95
2022-12-01T15:14:35.633Z,29.40
2022-12-01T15:17:09.090Z,30.48
2022-12-01T15:19:39.711Z,60.20
2022-12-01T15:22:14.892Z,31.60
2022-12-01T15:24:43.813Z,27.58
2022-12-01T15:27:26.910Z,29.00
2022-12-01T15:29:56.708Z,27.55
2022-12-01T15:32:27.957Z,30.15
2022-12-01T15:35:01.674Z,32.67
2022-12-01T15:37:31.664Z,29.35
2022-12-01T15:43:05.486Z,30.33
2022-12-01T15:45:44.498Z,33.53
2022-12-01T15:48:18.521Z,34.58
2022-12-01T15:50:50.564Z,37.13
2022-12-01T15:53:25.139Z,31.90
2022-12-01T15:55:58.703Z,33.00
2022-12-01T15:58:30.836Z,31.13
2022-12-01T16:01:01.617Z,35.13
2022-12-01T16:03:32.159Z,33.72
2022-12-01T16:06:00.195Z,31.27
2022-12-01T16:08:29.466Z,32.58
2022-12-01T16:11:15.930Z,30.77
2022-12-01T16:13:47.828Z,37.47
2022-12-01T16:16:41.257Z,26.92
2022-12-01T16:19:32.394Z,30.95
2022-12-01T16:22:14.084Z,31.27
2022-12-01T16:24:49.060Z,28.23
2022-12-01T16:27:21.966Z,30.52
2022-12-01T16:29:52.488Z,31.63
2022-12-01T16:32:23.707Z,30.52
2022-12-01T16:34:54.825Z,30.33
2022-12-01T16:37:23.367Z,33.72
2022-12-01T16:39:51.510Z,29.23
2022-12-01T16:42:22.368Z,29.70
2022-12-01T16:44:51.584Z,29.50
2022-12-01T16:47:21.728Z,27.42
2022-12-01T16:49:51.033Z,29.27
2022-12-01T16:52:44.189Z,27.52
2022-12-01T16:55:24.418Z,25.80
2022-12-01T16:57:52.932Z,26.25
2022-12-01T17:00:22.018Z,27.00
2022-12-01T17:02:50.401Z,28.90
2022-12-01T17:05:18.749Z,27.88
2022-12-01T17:07:48.819Z,27.98
2022-12-01T17:10:17.743Z,27.40
2022-12-01T17:12:45.835Z,28.42
2022-12-01T17:15:14.162Z,27.58
2022-12-01T17:17:42.165Z,25.02
2022-12-01T17:20:11.310Z,28.80
2022-12-01T17:22:40.123Z,30.70
2022-12-01T17:25:10.775Z,29.15
2022-12-01T17:27:39.708Z,25.85
2022-12-01T17:30:08.996Z,26.05
2022-12-01T17:32:37.548Z,27.25
2022-12-01T17:35:06.359Z,26.98
2022-12-01T17:37:36.843Z,25.17
2022-12-01T17:40:06.316Z,28.50
2022-12-01T17:42:35.856Z,28.45
2022-12-01T17:45:04.136Z,28.38
2022-12-01T17:47:32.397Z,25.90
2022-12-01T17:50:00.327Z,28.85
2022-12-01T17:52:29.298Z,26.42
2022-12-01T17:54:58.085Z,27.27
2022-12-01T17:57:26.780Z,27.90
2022-12-01T17:59:56.460Z,26.60
2022-12-01T18:02:24.671Z,24.23
2022-12-01T18:04:53.256Z,26.65
2022-12-01T18:07:21.522Z,25.35
2022-12-01T18:09:49.642Z,26.65
2022-12-01T18:12:17.686Z,29.95
2022-12-01T18:14:45.795Z,26.75
2022-12-01T18:17:15.211Z,28.67
2022-12-01T18:19:43.205Z,25.83
2022-12-01T18:22:11.340Z,26.83
2022-12-01T18:24:39.602Z,26.15
2022-12-01T18:27:07.594Z,27.30
2022-12-01T18:29:35.636Z,23.52
2022-12-01T18:32:04.252Z,26.67
2022-12-01T18:34:34.037Z,26.50
2022-12-01T18:37:02.563Z,26.40
2022-12-01T18:39:30.507Z,28.23
2022-12-01T18:41:58.725Z,26.10
2022-12-01T18:44:26.883Z,27.95
2022-12-01T18:46:57.222Z,24.80
2022-12-01T18:49:25.706Z,24.92
2022-12-01T18:51:55.048Z,26.48
2022-12-01T18:54:23.102Z,33.90
2022-12-01T18:56:52.521Z,27.30
2022-12-01T18:59:20.773Z,29.23
2022-12-01T19:01:49.149Z,27.60
2022-12-01T19:04:18.163Z,30.00
2022-12-01T19:06:47.274Z,29.08
2022-12-01T19:09:17.571Z,29.42
2022-12-01T19:11:46.046Z,26.83
2022-12-01T19:14:16.768Z,26.35
2022-12-01T19:16:46.445Z,27.35
2022-12-01T19:19:14.599Z,26.77
2022-12-01T19:21:45.066Z,25.50
2022-12-01T19:24:14.056Z,24.58
2022-12-01T19:26:43.817Z,26.90
2022-12-01T19:29:11.919Z,26.55
2022-12-01T19:31:40.714Z,28.20
2022-12-01T19:34:08.818Z,27.02
2022-12-01T19:36:36.921Z,24.10
2022-12-01T19:39:07.624Z,24.85
2022-12-01T19:41:38.650Z,23.80
2022-12-01T19:44:08.374Z,26.50
2022-12-01T19:46:36.372Z,23.88
2022-12-01T19:49:05.681Z,23.30
2022-12-01T19:51:36.033Z,25.20
2022-12-01T19:54:04.329Z,25.40
2022-12-01T19:56:32.587Z,24.35
2022-12-01T19:59:01.150Z,27.77
2022-12-01T20:01:30.678Z,26.35
2022-12-01T20:03:59.065Z,23.63
2022-12-01T20:06:29.667Z,24.60
2022-12-01T20:09:00.749Z,23.23
2022-12-01T20:11:32.726Z,24.17
2022-12-01T20:14:01.214Z,23.88
2022-12-01T20:16:32.136Z,25.02
2022-12-01T20:19:02.381Z,24.45
2022-12-01T20:21:32.693Z,22.38
2022-12-01T20:24:02.083Z,24.95
2022-12-01T20:26:32.654Z,23.17
2022-12-01T20:29:03.339Z,26.13
2022-12-01T20:31:34.560Z,23.23
2022-12-01T20:34:06.154Z,22.15
2022-12-01T20:36:34.842Z,24.10
2022-12-01T20:39:03.554Z,27.45
2022-12-01T20:41:31.653Z,23.60
2022-12-01T20:44:05.397Z,25.70
2022-12-01T20:46:37.580Z,24.45
2022-12-01T20:49:06.448Z,27.55
2022-12-01T20:51:34.699Z,25.05
2022-12-01T20:54:27.211Z,23.80
2022-12-01T20:56:51.979Z,23.98
2022-12-01T20:59:20.131Z,21.42
2022-12-01T21:01:49.695Z,23.02
2022-12-01T21:04:17.666Z,23.40
2022-12-01T21:06:45.795Z,21.40
2022-12-01T21:09:14.931Z,21.92
2022-12-01T21:12:03.907Z,25.25
2022-12-01T21:14:37.775Z,24.38
2022-12-01T21:17:15.946Z,22.35
2022-12-01T21:19:51.231Z,22.25
2022-12-01T21:22:20.196Z,25.65
2022-12-01T21:24:51.782Z,25.02
2022-12-01T21:27:20.264Z,24.02
2022-12-01T21:29:50.217Z,23.70
2022-12-01T21:32:22.281Z,24.52
2022-12-01T21:34:51.080Z,27.50
2022-12-01T21:37:23.121Z,25.70
2022-12-01T21:39:52.814Z,23.83
2022-12-01T21:42:22.769Z,23.73
2022-12-01T21:44:51.135Z,26.90
2022-12-01T21:47:23.418Z,26.35
2022-12-01T21:49:54.045Z,24.83
2022-12-01T21:52:25.060Z,25.33
2022-12-01T21:54:53.665Z,23.63
2022-12-01T21:57:38.532Z,25.42
2022-12-01T22:00:28.597Z,26.33
2022-12-01T22:03:24.540Z,23.52
2022-12-01T22:06:27.761Z,25.60
2022-12-01T22:08:49.573Z,24.52
2022-12-01T22:11:21.867Z,24.52
2022-12-01T22:13:54.859Z,23.67
2022-12-01T22:16:29.548Z,25.00
2022-12-01T22:19:01.464Z,24.38
2022-12-01T22:21:35.644Z,24.02
2022-12-01T22:24:23.370Z,24.50
2022-12-01T22:26:58.838Z,27.80
2022-12-01T22:29:29.912Z,27.83
2022-12-01T22:32:42.462Z,24.58
2022-12-01T22:35:23.713Z,25.73
2022-12-01T22:37:53.421Z,26.38
2022-12-01T22:40:39.920Z,27.60
2022-12-01T22:43:29.946Z,23.70
2022-12-01T22:46:21.047Z,26.17
2022-12-01T22:48:51.980Z,26.38
2022-12-01T22:51:47.466Z,28.55
2022-12-01T22:54:35.060Z,25.20
2022-12-01T22:57:19.539Z,24.25
2022-12-01T22:59:48.126Z,25.45
2022-12-01T23:02:21.980Z,25.13
2022-12-01T23:04:53.359Z,26.50
2022-12-01T23:07:41.528Z,26.52
2022-12-01T23:10:15.763Z,23.20
2022-12-01T23:12:45.110Z,25.50
2022-12-01T23:15:22.284Z,27.38
2022-12-01T23:17:51.183Z,25.58
2022-12-01T23:20:32.197Z,25.75
2022-12-01T23:23:04.072Z,25.88
2022-12-01T23:25:32.559Z,25.50
2022-12-01T23:28:04.470Z,23.23
2022-12-01T23:30:33.061Z,27.88
2022-12-01T23:33:17.457Z,23.85
2022-12-01T23:35:48.989Z,22.00
2022-12-01T23:38:21.699Z,24.70
2022-12-01T23:40:51.861Z,25.42
2022-12-01T23:43:21.958Z,27.20
2022-12-01T23:45:56.663Z,24.80
2022-12-01T23:48:30.119Z,24.48
2022-12-01T23:50:58.339Z,26.77
2022-12-01T23:53:31.442Z,27.10
2022-12-01T23:56:04.742Z,26.13
2022-12-01T23:58:32.894Z,26.25
